sensor_id;sensor_type;location;lat;lon;timestamp;P1;durP1;ratioP1;P2;durP2;ratioP2
64543;SDS011;50936;51.660;5.616;2022-10-16T00:01:28;7.80;;;3.53;;
64543;SDS011;50936;51.660;5.616;2022-10-16T00:04:17;6.10;;;3.10;;
64543;SDS011;50936;51.660;5.616;2022-10-16T00:07:04;8.32;;;3.30;;
64543;SDS011;50936;51.660;5.616;2022-10-16T00:09:51;8.73;;;3.25;;
64543;SDS011;50936;51.660;5.616;2022-10-16T00:12:38;8.85;;;3.40;;
64543;SDS011;50936;51.660;5.616;2022-10-16T00:15:25;7.43;;;2.95;;
64543;SDS011;50936;51.660;5.616;2022-10-16T00:18:12;6.78;;;3.00;;
64543;SDS011;50936;51.660;5.616;2022-10-16T00:21:04;8.05;;;3.28;;
64543;SDS011;50936;51.660;5.616;2022-10-16T00:24:02;8.20;;;3.50;;
64543;SDS011;50936;51.660;5.616;2022-10-16T00:26:53;7.78;;;3.40;;
64543;SDS011;50936;51.660;5.616;2022-10-16T00:29:39;7.40;;;3.95;;
64543;SDS011;50936;51.660;5.616;2022-10-16T00:32:26;6.72;;;3.65;;
64543;SDS011;50936;51.660;5.616;2022-10-16T00:35:14;6.85;;;2.95;;
64543;SDS011;50936;51.660;5.616;2022-10-16T00:38:00;6.97;;;3.80;;
64543;SDS011;50936;51.660;5.616;2022-10-16T00:40:47;7.00;;;3.30;;
64543;SDS011;50936;51.660;5.616;2022-10-16T00:43:42;7.68;;;3.50;;
64543;SDS011;50936;51.660;5.616;2022-10-16T00:46:42;8.77;;;3.35;;
64543;SDS011;50936;51.660;5.616;2022-10-16T00:49:29;8.27;;;3.90;;
64543;SDS011;50936;51.660;5.616;2022-10-16T00:52:16;5.93;;;3.75;;
64543;SDS011;50936;51.660;5.616;2022-10-16T00:55:04;8.88;;;3.60;;
64543;SDS011;50936;51.660;5.616;2022-10-16T00:57:53;8.15;;;3.45;;
64543;SDS011;50936;51.660;5.616;2022-10-16T01:00:40;7.68;;;3.50;;
64543;SDS011;50936;51.660;5.616;2022-10-16T01:03:31;7.15;;;3.50;;
64543;SDS011;50936;51.660;5.616;2022-10-16T01:06:23;7.25;;;3.42;;
64543;SDS011;50936;51.660;5.616;2022-10-16T01:16:10;8.13;;;3.38;;
64543;SDS011;50936;51.660;5.616;2022-10-16T01:22:37;6.60;;;3.20;;
64543;SDS011;50936;51.660;5.616;2022-10-16T01:28:45;7.60;;;3.28;;
64543;SDS011;50936;51.660;5.616;2022-10-16T01:31:41;7.18;;;3.33;;
64543;SDS011;50936;51.660;5.616;2022-10-16T01:34:38;9.77;;;3.45;;
64543;SDS011;50936;51.660;5.616;2022-10-16T01:37:37;6.85;;;3.13;;
64543;SDS011;50936;51.660;5.616;2022-10-16T01:40:34;8.70;;;4.20;;
64543;SDS011;50936;51.660;5.616;2022-10-16T01:43:25;6.13;;;3.20;;
64543;SDS011;50936;51.660;5.616;2022-10-16T01:46:21;8.30;;;3.70;;
64543;SDS011;50936;51.660;5.616;2022-10-16T01:49:10;6.97;;;2.97;;
64543;SDS011;50936;51.660;5.616;2022-10-16T01:51:59;6.55;;;3.38;;
64543;SDS011;50936;51.660;5.616;2022-10-16T01:54:54;5.65;;;2.35;;
64543;SDS011;50936;51.660;5.616;2022-10-16T01:57:46;5.85;;;2.78;;
64543;SDS011;50936;51.660;5.616;2022-10-16T02:00:38;3.97;;;2.45;;
64543;SDS011;50936;51.660;5.616;2022-10-16T02:03:29;7.40;;;3.10;;
64543;SDS011;50936;51.660;5.616;2022-10-16T02:06:20;5.70;;;2.80;;
64543;SDS011;50936;51.660;5.616;2022-10-16T02:09:09;5.25;;;3.17;;
64543;SDS011;50936;51.660;5.616;2022-10-16T02:11:56;4.80;;;3.13;;
64543;SDS011;50936;51.660;5.616;2022-10-16T02:14:49;5.28;;;2.80;;
64543;SDS011;50936;51.660;5.616;2022-10-16T02:17:36;5.65;;;2.97;;
64543;SDS011;50936;51.660;5.616;2022-10-16T02:20:25;6.72;;;2.63;;
64543;SDS011;50936;51.660;5.616;2022-10-16T02:22:59;7.25;;;2.72;;
64543;SDS011;50936;51.660;5.616;2022-10-16T02:25:32;5.22;;;2.65;;
64543;SDS011;50936;51.660;5.616;2022-10-16T02:28:07;4.65;;;2.40;;
64543;SDS011;50936;51.660;5.616;2022-10-16T02:30:50;8.82;;;3.08;;
64543;SDS011;50936;51.660;5.616;2022-10-16T02:33:27;3.10;;;2.22;;
64543;SDS011;50936;51.660;5.616;2022-10-16T02:35:57;5.03;;;2.72;;
64543;SDS011;50936;51.660;5.616;2022-10-16T02:38:25;7.88;;;3.00;;
64543;SDS011;50936;51.660;5.616;2022-10-16T02:40:53;6.20;;;2.70;;
64543;SDS011;50936;51.660;5.616;2022-10-16T02:43:21;4.85;;;2.47;;
64543;SDS011;50936;51.660;5.616;2022-10-16T02:45:48;6.20;;;2.00;;
64543;SDS011;50936;51.660;5.616;2022-10-16T02:48:15;4.13;;;2.67;;
64543;SDS011;50936;51.660;5.616;2022-10-16T02:50:41;7.88;;;2.92;;
64543;SDS011;50936;51.660;5.616;2022-10-16T02:53:08;7.97;;;2.90;;
64543;SDS011;50936;51.660;5.616;2022-10-16T02:55:35;5.35;;;2.42;;
64543;SDS011;50936;51.660;5.616;2022-10-16T02:58:02;7.95;;;3.15;;
64543;SDS011;50936;51.660;5.616;2022-10-16T03:00:29;6.43;;;2.83;;
64543;SDS011;50936;51.660;5.616;2022-10-16T03:02:55;5.43;;;2.85;;
64543;SDS011;50936;51.660;5.616;2022-10-16T03:05:22;6.35;;;2.47;;
64543;SDS011;50936;51.660;5.616;2022-10-16T03:07:49;7.43;;;2.63;;
64543;SDS011;50936;51.660;5.616;2022-10-16T03:10:16;5.20;;;2.70;;
64543;SDS011;50936;51.660;5.616;2022-10-16T03:12:42;4.25;;;2.53;;
64543;SDS011;50936;51.660;5.616;2022-10-16T03:15:09;5.90;;;2.63;;
64543;SDS011;50936;51.660;5.616;2022-10-16T03:17:36;6.97;;;3.03;;
64543;SDS011;50936;51.660;5.616;2022-10-16T03:20:03;4.63;;;2.67;;
64543;SDS011;50936;51.660;5.616;2022-10-16T03:22:30;5.55;;;2.90;;
64543;SDS011;50936;51.660;5.616;2022-10-16T03:24:57;8.25;;;3.10;;
64543;SDS011;50936;51.660;5.616;2022-10-16T03:27:24;5.30;;;2.78;;
64543;SDS011;50936;51.660;5.616;2022-10-16T03:29:51;5.10;;;2.55;;
64543;SDS011;50936;51.660;5.616;2022-10-16T03:32:18;6.63;;;3.20;;
64543;SDS011;50936;51.660;5.616;2022-10-16T03:34:46;6.68;;;3.13;;
64543;SDS011;50936;51.660;5.616;2022-10-16T03:37:13;7.60;;;2.67;;
64543;SDS011;50936;51.660;5.616;2022-10-16T03:39:40;8.23;;;2.90;;
64543;SDS011;50936;51.660;5.616;2022-10-16T03:42:07;5.65;;;2.65;;
64543;SDS011;50936;51.660;5.616;2022-10-16T03:44:33;4.25;;;1.92;;
64543;SDS011;50936;51.660;5.616;2022-10-16T03:47:00;5.05;;;3.20;;
64543;SDS011;50936;51.660;5.616;2022-10-16T03:49:27;4.45;;;2.50;;
64543;SDS011;50936;51.660;5.616;2022-10-16T03:51:54;5.70;;;2.67;;
64543;SDS011;50936;51.660;5.616;2022-10-16T03:54:21;9.75;;;3.60;;
64543;SDS011;50936;51.660;5.616;2022-10-16T03:56:48;5.35;;;1.90;;
64543;SDS011;50936;51.660;5.616;2022-10-16T03:59:15;5.50;;;2.97;;
64543;SDS011;50936;51.660;5.616;2022-10-16T04:01:42;5.88;;;2.53;;
64543;SDS011;50936;51.660;5.616;2022-10-16T04:04:08;4.97;;;2.70;;
64543;SDS011;50936;51.660;5.616;2022-10-16T04:06:35;4.97;;;2.63;;
64543;SDS011;50936;51.660;5.616;2022-10-16T04:09:02;3.63;;;2.08;;
64543;SDS011;50936;51.660;5.616;2022-10-16T04:11:29;4.88;;;2.40;;
64543;SDS011;50936;51.660;5.616;2022-10-16T04:13:56;5.00;;;2.50;;
64543;SDS011;50936;51.660;5.616;2022-10-16T04:16:23;7.18;;;2.20;;
64543;SDS011;50936;51.660;5.616;2022-10-16T04:18:49;4.55;;;2.88;;
64543;SDS011;50936;51.660;5.616;2022-10-16T04:21:16;5.13;;;2.50;;
64543;SDS011;50936;51.660;5.616;2022-10-16T04:23:43;7.32;;;2.83;;
64543;SDS011;50936;51.660;5.616;2022-10-16T04:26:11;5.25;;;2.33;;
64543;SDS011;50936;51.660;5.616;2022-10-16T04:28:38;6.10;;;3.00;;
64543;SDS011;50936;51.660;5.616;2022-10-16T04:31:05;7.53;;;1.92;;
64543;SDS011;50936;51.660;5.616;2022-10-16T04:33:33;5.53;;;2.55;;
64543;SDS011;50936;51.660;5.616;2022-10-16T04:36:01;5.78;;;2.47;;
64543;SDS011;50936;51.660;5.616;2022-10-16T04:38:29;4.65;;;2.67;;
64543;SDS011;50936;51.660;5.616;2022-10-16T04:40:57;5.32;;;2.85;;
64543;SDS011;50936;51.660;5.616;2022-10-16T04:43:23;4.38;;;2.53;;
64543;SDS011;50936;51.660;5.616;2022-10-16T04:45:50;10.48;;;2.67;;
64543;SDS011;50936;51.660;5.616;2022-10-16T04:48:18;3.60;;;2.03;;
64543;SDS011;50936;51.660;5.616;2022-10-16T04:50:45;4.63;;;2.70;;
64543;SDS011;50936;51.660;5.616;2022-10-16T04:53:16;4.55;;;2.70;;
64543;SDS011;50936;51.660;5.616;2022-10-16T04:55:43;6.32;;;2.40;;
64543;SDS011;50936;51.660;5.616;2022-10-16T04:58:10;3.40;;;1.88;;
64543;SDS011;50936;51.660;5.616;2022-10-16T05:00:37;7.15;;;2.35;;
64543;SDS011;50936;51.660;5.616;2022-10-16T05:03:04;3.90;;;2.13;;
64543;SDS011;50936;51.660;5.616;2022-10-16T05:05:35;4.47;;;2.40;;
64543;SDS011;50936;51.660;5.616;2022-10-16T05:08:03;5.72;;;2.08;;
64543;SDS011;50936;51.660;5.616;2022-10-16T05:10:30;4.65;;;2.22;;
64543;SDS011;50936;51.660;5.616;2022-10-16T05:12:57;6.13;;;2.50;;
64543;SDS011;50936;51.660;5.616;2022-10-16T05:15:24;6.47;;;2.92;;
64543;SDS011;50936;51.660;5.616;2022-10-16T05:17:54;4.15;;;2.30;;
64543;SDS011;50936;51.660;5.616;2022-10-16T05:20:22;5.45;;;2.67;;
64543;SDS011;50936;51.660;5.616;2022-10-16T05:22:49;4.65;;;2.00;;
64543;SDS011;50936;51.660;5.616;2022-10-16T05:25:16;5.80;;;2.50;;
64543;SDS011;50936;51.660;5.616;2022-10-16T05:27:43;5.68;;;2.63;;
64543;SDS011;50936;51.660;5.616;2022-10-16T05:30:15;7.20;;;2.20;;
64543;SDS011;50936;51.660;5.616;2022-10-16T05:32:50;7.45;;;2.70;;
64543;SDS011;50936;51.660;5.616;2022-10-16T05:35:18;4.75;;;2.50;;
64543;SDS011;50936;51.660;5.616;2022-10-16T05:37:45;5.82;;;2.33;;
64543;SDS011;50936;51.660;5.616;2022-10-16T05:40:13;4.60;;;2.42;;
64543;SDS011;50936;51.660;5.616;2022-10-16T05:42:42;5.70;;;2.97;;
64543;SDS011;50936;51.660;5.616;2022-10-16T05:45:09;5.05;;;2.45;;
64543;SDS011;50936;51.660;5.616;2022-10-16T05:47:38;5.93;;;3.20;;
64543;SDS011;50936;51.660;5.616;2022-10-16T05:50:05;12.25;;;3.20;;
64543;SDS011;50936;51.660;5.616;2022-10-16T05:52:33;9.48;;;3.20;;
64543;SDS011;50936;51.660;5.616;2022-10-16T05:55:00;6.75;;;3.10;;
64543;SDS011;50936;51.660;5.616;2022-10-16T05:57:26;6.88;;;3.05;;
64543;SDS011;50936;51.660;5.616;2022-10-16T05:59:54;6.68;;;2.67;;
64543;SDS011;50936;51.660;5.616;2022-10-16T06:02:20;6.25;;;3.03;;
64543;SDS011;50936;51.660;5.616;2022-10-16T06:04:47;7.60;;;3.15;;
64543;SDS011;50936;51.660;5.616;2022-10-16T06:07:14;6.60;;;2.90;;
64543;SDS011;50936;51.660;5.616;2022-10-16T06:09:41;5.53;;;3.25;;
64543;SDS011;50936;51.660;5.616;2022-10-16T06:12:08;4.80;;;2.67;;
64543;SDS011;50936;51.660;5.616;2022-10-16T06:14:34;6.35;;;2.85;;
64543;SDS011;50936;51.660;5.616;2022-10-16T06:17:01;8.25;;;3.47;;
64543;SDS011;50936;51.660;5.616;2022-10-16T06:19:28;10.82;;;3.75;;
64543;SDS011;50936;51.660;5.616;2022-10-16T06:21:55;7.40;;;2.60;;
64543;SDS011;50936;51.660;5.616;2022-10-16T06:24:24;9.98;;;3.13;;
64543;SDS011;50936;51.660;5.616;2022-10-16T06:26:51;6.45;;;3.80;;
64543;SDS011;50936;51.660;5.616;2022-10-16T06:29:18;7.43;;;3.10;;
64543;SDS011;50936;51.660;5.616;2022-10-16T06:31:45;9.52;;;3.65;;
64543;SDS011;50936;51.660;5.616;2022-10-16T06:34:12;6.32;;;3.22;;
64543;SDS011;50936;51.660;5.616;2022-10-16T06:36:39;8.02;;;3.75;;
64543;SDS011;50936;51.660;5.616;2022-10-16T06:39:07;9.70;;;3.15;;
64543;SDS011;50936;51.660;5.616;2022-10-16T06:41:34;10.20;;;4.75;;
64543;SDS011;50936;51.660;5.616;2022-10-16T06:44:14;6.80;;;3.05;;
64543;SDS011;50936;51.660;5.616;2022-10-16T06:46:41;8.23;;;3.40;;
64543;SDS011;50936;51.660;5.616;2022-10-16T06:49:08;5.70;;;3.45;;
64543;SDS011;50936;51.660;5.616;2022-10-16T06:51:34;8.77;;;3.60;;
64543;SDS011;50936;51.660;5.616;2022-10-16T06:54:08;6.63;;;3.03;;
64543;SDS011;50936;51.660;5.616;2022-10-16T06:56:35;6.78;;;3.30;;
64543;SDS011;50936;51.660;5.616;2022-10-16T06:59:02;5.97;;;2.75;;
64543;SDS011;50936;51.660;5.616;2022-10-16T07:01:30;4.85;;;2.58;;
64543;SDS011;50936;51.660;5.616;2022-10-16T07:03:57;6.93;;;2.80;;
64543;SDS011;50936;51.660;5.616;2022-10-16T07:06:24;5.65;;;3.00;;
64543;SDS011;50936;51.660;5.616;2022-10-16T07:08:53;11.30;;;3.58;;
64543;SDS011;50936;51.660;5.616;2022-10-16T07:11:21;5.90;;;2.90;;
64543;SDS011;50936;51.660;5.616;2022-10-16T07:13:50;6.15;;;2.78;;
64543;SDS011;50936;51.660;5.616;2022-10-16T07:16:23;7.25;;;3.58;;
64543;SDS011;50936;51.660;5.616;2022-10-16T07:18:59;7.53;;;3.20;;
64543;SDS011;50936;51.660;5.616;2022-10-16T07:21:29;7.70;;;3.10;;
64543;SDS011;50936;51.660;5.616;2022-10-16T07:24:02;7.13;;;2.95;;
64543;SDS011;50936;51.660;5.616;2022-10-16T07:26:33;5.97;;;2.63;;
64543;SDS011;50936;51.660;5.616;2022-10-16T07:29:03;6.95;;;3.13;;
64543;SDS011;50936;51.660;5.616;2022-10-16T07:31:30;5.82;;;3.17;;
64543;SDS011;50936;51.660;5.616;2022-10-16T07:33:58;11.13;;;3.80;;
64543;SDS011;50936;51.660;5.616;2022-10-16T07:36:26;6.78;;;2.83;;
64543;SDS011;50936;51.660;5.616;2022-10-16T07:38:54;7.22;;;3.33;;
64543;SDS011;50936;51.660;5.616;2022-10-16T07:41:25;5.38;;;2.72;;
64543;SDS011;50936;51.660;5.616;2022-10-16T07:43:53;4.10;;;2.45;;
64543;SDS011;50936;51.660;5.616;2022-10-16T07:46:22;6.28;;;2.75;;
64543;SDS011;50936;51.660;5.616;2022-10-16T07:48:49;6.63;;;2.10;;
64543;SDS011;50936;51.660;5.616;2022-10-16T07:51:18;4.43;;;2.00;;
64543;SDS011;50936;51.660;5.616;2022-10-16T07:53:47;3.40;;;1.85;;
64543;SDS011;50936;51.660;5.616;2022-10-16T07:56:15;4.20;;;2.10;;
64543;SDS011;50936;51.660;5.616;2022-10-16T07:58:44;4.80;;;2.30;;
64543;SDS011;50936;51.660;5.616;2022-10-16T08:01:12;6.85;;;2.38;;
64543;SDS011;50936;51.660;5.616;2022-10-16T08:03:45;6.65;;;2.08;;
64543;SDS011;50936;51.660;5.616;2022-10-16T08:06:15;8.48;;;2.60;;
64543;SDS011;50936;51.660;5.616;2022-10-16T08:08:48;5.50;;;2.30;;
64543;SDS011;50936;51.660;5.616;2022-10-16T08:11:15;5.55;;;2.33;;
64543;SDS011;50936;51.660;5.616;2022-10-16T08:13:43;7.25;;;2.28;;
64543;SDS011;50936;51.660;5.616;2022-10-16T08:16:09;6.85;;;1.98;;
64543;SDS011;50936;51.660;5.616;2022-10-16T08:18:37;8.20;;;2.30;;
64543;SDS011;50936;51.660;5.616;2022-10-16T08:21:07;3.35;;;1.67;;
64543;SDS011;50936;51.660;5.616;2022-10-16T08:23:46;4.43;;;2.05;;
64543;SDS011;50936;51.660;5.616;2022-10-16T08:26:23;4.93;;;1.98;;
64543;SDS011;50936;51.660;5.616;2022-10-16T08:28:51;8.55;;;1.83;;
64543;SDS011;50936;51.660;5.616;2022-10-16T08:31:18;6.13;;;2.10;;
64543;SDS011;50936;51.660;5.616;2022-10-16T08:33:45;5.57;;;2.10;;
64543;SDS011;50936;51.660;5.616;2022-10-16T08:36:14;10.35;;;2.08;;
64543;SDS011;50936;51.660;5.616;2022-10-16T08:38:42;4.60;;;1.85;;
64543;SDS011;50936;51.660;5.616;2022-10-16T08:44:03;7.00;;;2.30;;
64543;SDS011;50936;51.660;5.616;2022-10-16T08:46:49;6.65;;;1.90;;
64543;SDS011;50936;51.660;5.616;2022-10-16T08:49:40;8.15;;;2.20;;
64543;SDS011;50936;51.660;5.616;2022-10-16T08:52:13;4.47;;;1.90;;
64543;SDS011;50936;51.660;5.616;2022-10-16T08:54:45;5.38;;;2.20;;
64543;SDS011;50936;51.660;5.616;2022-10-16T08:57:22;4.43;;;2.10;;
64543;SDS011;50936;51.660;5.616;2022-10-16T08:59:53;7.03;;;2.33;;
64543;SDS011;50936;51.660;5.616;2022-10-16T09:08:01;5.70;;;1.98;;
64543;SDS011;50936;51.660;5.616;2022-10-16T09:13:43;4.75;;;2.00;;
64543;SDS011;50936;51.660;5.616;2022-10-16T09:16:39;4.95;;;2.08;;
64543;SDS011;50936;51.660;5.616;2022-10-16T09:19:18;6.03;;;1.90;;
64543;SDS011;50936;51.660;5.616;2022-10-16T09:21:55;7.18;;;2.00;;
64543;SDS011;50936;51.660;5.616;2022-10-16T09:24:24;5.97;;;2.08;;
64543;SDS011;50936;51.660;5.616;2022-10-16T09:26:55;5.97;;;1.77;;
64543;SDS011;50936;51.660;5.616;2022-10-16T09:29:21;3.92;;;1.75;;
64543;SDS011;50936;51.660;5.616;2022-10-16T09:31:52;6.35;;;1.85;;
64543;SDS011;50936;51.660;5.616;2022-10-16T09:34:27;14.38;;;2.50;;
64543;SDS011;50936;51.660;5.616;2022-10-16T09:37:01;6.95;;;2.05;;
64543;SDS011;50936;51.660;5.616;2022-10-16T09:39:45;14.88;;;3.40;;
64543;SDS011;50936;51.660;5.616;2022-10-16T09:42:30;5.80;;;1.83;;
64543;SDS011;50936;51.660;5.616;2022-10-16T09:45:02;7.68;;;1.70;;
64543;SDS011;50936;51.660;5.616;2022-10-16T09:47:31;10.25;;;2.40;;
64543;SDS011;50936;51.660;5.616;2022-10-16T09:50:13;3.90;;;1.27;;
64543;SDS011;50936;51.660;5.616;2022-10-16T09:52:51;8.25;;;1.92;;
64543;SDS011;50936;51.660;5.616;2022-10-16T09:55:28;5.40;;;1.95;;
64543;SDS011;50936;51.660;5.616;2022-10-16T09:57:55;6.22;;;1.70;;
64543;SDS011;50936;51.660;5.616;2022-10-16T10:00:22;5.88;;;1.30;;
64543;SDS011;50936;51.660;5.616;2022-10-16T10:02:51;5.68;;;1.70;;
64543;SDS011;50936;51.660;5.616;2022-10-16T10:05:26;10.65;;;2.13;;
64543;SDS011;50936;51.660;5.616;2022-10-16T10:07:59;8.68;;;1.90;;
64543;SDS011;50936;51.660;5.616;2022-10-16T10:10:41;8.98;;;2.20;;
64543;SDS011;50936;51.660;5.616;2022-10-16T10:13:19;7.40;;;1.50;;
64543;SDS011;50936;51.660;5.616;2022-10-16T10:15:48;8.05;;;1.77;;
64543;SDS011;50936;51.660;5.616;2022-10-16T10:18:21;4.32;;;1.40;;
64543;SDS011;50936;51.660;5.616;2022-10-16T10:20:57;5.28;;;1.77;;
64543;SDS011;50936;51.660;5.616;2022-10-16T10:23:33;9.10;;;1.80;;
64543;SDS011;50936;51.660;5.616;2022-10-16T10:26:05;5.72;;;1.50;;
64543;SDS011;50936;51.660;5.616;2022-10-16T10:40:55;9.07;;;1.80;;
64543;SDS011;50936;51.660;5.616;2022-10-16T10:46:32;10.15;;;2.10;;
64543;SDS011;50936;51.660;5.616;2022-10-16T10:57:57;10.73;;;1.92;;
64543;SDS011;50936;51.660;5.616;2022-10-16T11:00:59;10.40;;;1.95;;
64543;SDS011;50936;51.660;5.616;2022-10-16T11:09:08;9.55;;;1.50;;
64543;SDS011;50936;51.660;5.616;2022-10-16T11:11:43;10.20;;;1.67;;
64543;SDS011;50936;51.660;5.616;2022-10-16T11:17:23;11.82;;;1.98;;
64543;SDS011;50936;51.660;5.616;2022-10-16T11:19:59;10.15;;;1.88;;
64543;SDS011;50936;51.660;5.616;2022-10-16T11:22:39;7.00;;;1.70;;
64543;SDS011;50936;51.660;5.616;2022-10-16T11:25:16;10.50;;;1.98;;
64543;SDS011;50936;51.660;5.616;2022-10-16T11:27:52;9.95;;;1.70;;
64543;SDS011;50936;51.660;5.616;2022-10-16T11:39:31;8.07;;;1.50;;
64543;SDS011;50936;51.660;5.616;2022-10-16T11:42:09;7.20;;;1.40;;
64543;SDS011;50936;51.660;5.616;2022-10-16T11:44:53;5.45;;;1.73;;
64543;SDS011;50936;51.660;5.616;2022-10-16T11:47:43;9.23;;;1.70;;
64543;SDS011;50936;51.660;5.616;2022-10-16T11:51:00;8.13;;;1.85;;
64543;SDS011;50936;51.660;5.616;2022-10-16T11:53:45;8.52;;;1.60;;
64543;SDS011;50936;51.660;5.616;2022-10-16T11:56:20;6.03;;;1.70;;
64543;SDS011;50936;51.660;5.616;2022-10-16T11:58:56;6.82;;;1.80;;
64543;SDS011;50936;51.660;5.616;2022-10-16T12:01:33;6.68;;;1.40;;
64543;SDS011;50936;51.660;5.616;2022-10-16T12:07:13;12.13;;;1.70;;
64543;SDS011;50936;51.660;5.616;2022-10-16T12:09:48;8.63;;;1.60;;
64543;SDS011;50936;51.660;5.616;2022-10-16T12:17:54;10.52;;;2.03;;
64543;SDS011;50936;51.660;5.616;2022-10-16T12:20:23;10.65;;;1.80;;
64543;SDS011;50936;51.660;5.616;2022-10-16T12:22:57;11.18;;;2.15;;
64543;SDS011;50936;51.660;5.616;2022-10-16T12:28:20;6.50;;;1.98;;
64543;SDS011;50936;51.660;5.616;2022-10-16T12:30:53;11.80;;;1.98;;
64543;SDS011;50936;51.660;5.616;2022-10-16T12:33:34;9.13;;;2.15;;
64543;SDS011;50936;51.660;5.616;2022-10-16T12:36:13;11.68;;;2.03;;
64543;SDS011;50936;51.660;5.616;2022-10-16T12:38:53;11.20;;;1.85;;
64543;SDS011;50936;51.660;5.616;2022-10-16T12:41:33;7.70;;;2.13;;
64543;SDS011;50936;51.660;5.616;2022-10-16T12:44:04;5.28;;;1.88;;
64543;SDS011;50936;51.660;5.616;2022-10-16T12:51:42;9.63;;;1.73;;
64543;SDS011;50936;51.660;5.616;2022-10-16T13:05:54;7.70;;;2.15;;
64543;SDS011;50936;51.660;5.616;2022-10-16T13:17:15;8.05;;;2.05;;
64543;SDS011;50936;51.660;5.616;2022-10-16T13:25:58;7.32;;;1.52;;
64543;SDS011;50936;51.660;5.616;2022-10-16T13:28:42;7.05;;;2.00;;
64543;SDS011;50936;51.660;5.616;2022-10-16T13:31:13;7.10;;;2.00;;
64543;SDS011;50936;51.660;5.616;2022-10-16T13:33:47;5.38;;;1.30;;
64543;SDS011;50936;51.660;5.616;2022-10-16T13:36:22;7.15;;;1.60;;
64543;SDS011;50936;51.660;5.616;2022-10-16T13:41:44;7.18;;;1.60;;
64543;SDS011;50936;51.660;5.616;2022-10-16T13:44:18;8.30;;;1.80;;
64543;SDS011;50936;51.660;5.616;2022-10-16T13:46:47;8.93;;;1.70;;
64543;SDS011;50936;51.660;5.616;2022-10-16T13:49:26;5.07;;;1.40;;
64543;SDS011;50936;51.660;5.616;2022-10-16T13:51:54;6.45;;;1.70;;
64543;SDS011;50936;51.660;5.616;2022-10-16T13:54:26;9.30;;;1.70;;
64543;SDS011;50936;51.660;5.616;2022-10-16T13:57:04;6.95;;;1.58;;
64543;SDS011;50936;51.660;5.616;2022-10-16T13:59:52;5.13;;;1.38;;
64543;SDS011;50936;51.660;5.616;2022-10-16T14:05:08;9.77;;;2.30;;
64543;SDS011;50936;51.660;5.616;2022-10-16T14:07:37;4.93;;;1.67;;
64543;SDS011;50936;51.660;5.616;2022-10-16T14:10:18;7.20;;;1.50;;
64543;SDS011;50936;51.660;5.616;2022-10-16T14:13:00;7.35;;;1.55;;
64543;SDS011;50936;51.660;5.616;2022-10-16T14:15:32;3.72;;;1.23;;
64543;SDS011;50936;51.660;5.616;2022-10-16T14:18:02;7.55;;;1.60;;
64543;SDS011;50936;51.660;5.616;2022-10-16T14:20:31;7.55;;;1.92;;
64543;SDS011;50936;51.660;5.616;2022-10-16T14:23:02;7.00;;;2.00;;
64543;SDS011;50936;51.660;5.616;2022-10-16T14:25:45;8.45;;;1.88;;
64543;SDS011;50936;51.660;5.616;2022-10-16T14:30:57;8.48;;;2.00;;
64543;SDS011;50936;51.660;5.616;2022-10-16T14:38:35;7.20;;;1.73;;
64543;SDS011;50936;51.660;5.616;2022-10-16T14:41:04;7.38;;;1.90;;
64543;SDS011;50936;51.660;5.616;2022-10-16T14:46:10;6.35;;;1.52;;
64543;SDS011;50936;51.660;5.616;2022-10-16T14:48:42;13.38;;;2.03;;
64543;SDS011;50936;51.660;5.616;2022-10-16T14:53:41;5.60;;;1.80;;
64543;SDS011;50936;51.660;5.616;2022-10-16T14:56:09;7.57;;;1.88;;
64543;SDS011;50936;51.660;5.616;2022-10-16T14:58:52;4.05;;;1.60;;
64543;SDS011;50936;51.660;5.616;2022-10-16T15:01:20;7.38;;;1.90;;
64543;SDS011;50936;51.660;5.616;2022-10-16T15:03:47;6.78;;;1.90;;
64543;SDS011;50936;51.660;5.616;2022-10-16T15:06:15;7.47;;;2.17;;
64543;SDS011;50936;51.660;5.616;2022-10-16T15:08:42;9.15;;;2.42;;
64543;SDS011;50936;51.660;5.616;2022-10-16T15:11:16;7.15;;;2.33;;
64543;SDS011;50936;51.660;5.616;2022-10-16T15:13:45;10.32;;;1.88;;
64543;SDS011;50936;51.660;5.616;2022-10-16T15:16:14;5.53;;;2.00;;
64543;SDS011;50936;51.660;5.616;2022-10-16T15:18:42;8.57;;;2.42;;
64543;SDS011;50936;51.660;5.616;2022-10-16T15:21:27;9.60;;;2.40;;
64543;SDS011;50936;51.660;5.616;2022-10-16T15:23:57;5.20;;;2.08;;
64543;SDS011;50936;51.660;5.616;2022-10-16T15:26:26;10.93;;;3.53;;
64543;SDS011;50936;51.660;5.616;2022-10-16T15:28:55;15.52;;;6.15;;
64543;SDS011;50936;51.660;5.616;2022-10-16T15:31:23;12.48;;;5.60;;
64543;SDS011;50936;51.660;5.616;2022-10-16T15:33:51;13.23;;;5.65;;
64543;SDS011;50936;51.660;5.616;2022-10-16T15:36:25;8.77;;;3.67;;
64543;SDS011;50936;51.660;5.616;2022-10-16T15:41:23;7.38;;;3.00;;
64543;SDS011;50936;51.660;5.616;2022-10-16T15:43:50;6.40;;;2.60;;
64543;SDS011;50936;51.660;5.616;2022-10-16T15:46:18;9.32;;;3.28;;
64543;SDS011;50936;51.660;5.616;2022-10-16T15:48:51;11.75;;;3.00;;
64543;SDS011;50936;51.660;5.616;2022-10-16T15:51:24;8.77;;;3.08;;
64543;SDS011;50936;51.660;5.616;2022-10-16T15:53:56;8.73;;;3.20;;
64543;SDS011;50936;51.660;5.616;2022-10-16T15:56:23;8.23;;;3.30;;
64543;SDS011;50936;51.660;5.616;2022-10-16T15:58:51;7.43;;;3.03;;
64543;SDS011;50936;51.660;5.616;2022-10-16T16:01:20;6.97;;;3.20;;
64543;SDS011;50936;51.660;5.616;2022-10-16T16:03:48;5.80;;;2.63;;
64543;SDS011;50936;51.660;5.616;2022-10-16T16:06:20;6.75;;;2.47;;
64543;SDS011;50936;51.660;5.616;2022-10-16T16:08:50;9.23;;;2.50;;
64543;SDS011;50936;51.660;5.616;2022-10-16T16:11:18;7.00;;;2.40;;
64543;SDS011;50936;51.660;5.616;2022-10-16T16:13:46;5.25;;;2.20;;
64543;SDS011;50936;51.660;5.616;2022-10-16T16:16:14;6.05;;;2.53;;
64543;SDS011;50936;51.660;5.616;2022-10-16T16:18:43;6.45;;;2.90;;
64543;SDS011;50936;51.660;5.616;2022-10-16T16:21:11;9.95;;;3.35;;
64543;SDS011;50936;51.660;5.616;2022-10-16T16:23:39;8.35;;;3.55;;
64543;SDS011;50936;51.660;5.616;2022-10-16T16:28:40;9.13;;;3.70;;
64543;SDS011;50936;51.660;5.616;2022-10-16T16:31:09;7.07;;;3.30;;
64543;SDS011;50936;51.660;5.616;2022-10-16T16:33:36;7.90;;;3.50;;
64543;SDS011;50936;51.660;5.616;2022-10-16T16:36:04;7.82;;;3.33;;
64543;SDS011;50936;51.660;5.616;2022-10-16T16:38:39;6.40;;;3.58;;
64543;SDS011;50936;51.660;5.616;2022-10-16T16:41:20;9.50;;;4.00;;
64543;SDS011;50936;51.660;5.616;2022-10-16T16:43:51;5.45;;;3.08;;
64543;SDS011;50936;51.660;5.616;2022-10-16T16:46:20;9.85;;;3.70;;
64543;SDS011;50936;51.660;5.616;2022-10-16T16:48:48;9.52;;;3.70;;
64543;SDS011;50936;51.660;5.616;2022-10-16T16:51:19;7.03;;;3.33;;
64543;SDS011;50936;51.660;5.616;2022-10-16T16:53:47;9.48;;;4.22;;
64543;SDS011;50936;51.660;5.616;2022-10-16T16:56:16;11.85;;;5.07;;
64543;SDS011;50936;51.660;5.616;2022-10-16T16:58:46;9.82;;;4.95;;
64543;SDS011;50936;51.660;5.616;2022-10-16T17:01:18;12.95;;;5.18;;
64543;SDS011;50936;51.660;5.616;2022-10-16T17:03:47;11.85;;;5.47;;
64543;SDS011;50936;51.660;5.616;2022-10-16T17:06:21;10.35;;;4.75;;
64543;SDS011;50936;51.660;5.616;2022-10-16T17:08:51;10.15;;;4.70;;
64543;SDS011;50936;51.660;5.616;2022-10-16T17:11:20;8.65;;;4.60;;
64543;SDS011;50936;51.660;5.616;2022-10-16T17:13:50;9.35;;;5.10;;
64543;SDS011;50936;51.660;5.616;2022-10-16T17:16:27;10.73;;;5.28;;
64543;SDS011;50936;51.660;5.616;2022-10-16T17:19:00;11.63;;;5.28;;
64543;SDS011;50936;51.660;5.616;2022-10-16T17:21:31;9.88;;;5.70;;
64543;SDS011;50936;51.660;5.616;2022-10-16T17:23:58;10.27;;;5.47;;
64543;SDS011;50936;51.660;5.616;2022-10-16T17:26:26;8.85;;;4.68;;
64543;SDS011;50936;51.660;5.616;2022-10-16T17:28:55;15.25;;;6.53;;
64543;SDS011;50936;51.660;5.616;2022-10-16T17:31:26;10.65;;;5.72;;
64543;SDS011;50936;51.660;5.616;2022-10-16T17:33:59;10.95;;;5.25;;
64543;SDS011;50936;51.660;5.616;2022-10-16T17:36:30;10.77;;;5.22;;